Time;durP1;ratioP1;P1;durP2;ratioP2;P2;SDS_P1;SDS_P2;PMS_P1;PMS_P2;Temp;Humidity;BMP_temperature;BMP_pressure;BME280_temperature;BME280_humidity;BME280_pressure;Samples;Min_cycle;Max_cycle;Signal;HPM_P1;HPM_P2
2021/07/08 00:00:53;;;;;;;7.53;6.83;;;;;;;;;;5005169;28;20197;-73
2021/07/08 00:03:57;;;;;;;11.17;6.40;;;;;;;;;;5013710;28;20210;-72
2021/07/08 00:07:01;;;;;;;7.87;7.07;;;;;;;;;;4987670;28;20221;-72
2021/07/08 00:10:21;;;;;;;7.90;5.90;;;;;;;;;;4999681;28;20210;-72
2021/07/08 00:13:30;;;;;;;7.60;5.97;;;;;;;;;;4999911;28;20538;-72
2021/07/08 00:16:39;;;;;;;12.53;6.60;;;;;;;;;;5011777;28;20178;-72
2021/07/08 00:19:43;;;;;;;7.97;5.70;;;;;;;;;;5007794;28;20221;-72
2021/07/08 00:22:47;;;;;;;8.93;5.10;;;;;;;;;;5006095;28;20185;-73
2021/07/08 00:25:54;;;;;;;6.20;5.27;;;;;;;;;;4991750;28;20197;-72
2021/07/08 00:28:58;;;;;;;6.40;4.90;;;;;;;;;;5001886;28;20221;-72
2021/07/08 00:32:02;;;;;;;6.73;4.70;;;;;;;;;;5016683;28;20193;-72
2021/07/08 00:35:07;;;;;;;4.33;3.93;;;;;;;;;;5016527;28;20189;-72
2021/07/08 00:38:11;;;;;;;8.70;4.00;;;;;;;;;;5011902;28;20205;-72
2021/07/08 00:41:15;;;;;;;4.23;3.93;;;;;;;;;;4999375;28;20190;-72
2021/07/08 00:44:19;;;;;;;4.30;3.90;;;;;;;;;;5002438;28;20189;-72
2021/07/08 00:47:23;;;;;;;7.43;3.77;;;;;;;;;;5000230;28;20202;-72
2021/07/08 00:50:42;;;;;;;5.80;3.63;;;;;;;;;;5008587;28;20194;-72
2021/07/08 00:53:47;;;;;;;6.07;3.70;;;;;;;;;;4999212;28;20178;-72
2021/07/08 00:56:51;;;;;;;4.13;3.50;;;;;;;;;;4998394;28;20534;-72
2021/07/08 00:59:55;;;;;;;3.73;3.23;;;;;;;;;;5001527;28;20217;-72
2021/07/08 01:03:00;;;;;;;5.47;3.27;;;;;;;;;;5009584;28;20185;-73
2021/07/08 01:06:04;;;;;;;4.23;3.53;;;;;;;;;;5015753;28;20202;-72
2021/07/08 01:09:08;;;;;;;4.30;3.67;;;;;;;;;;5001392;28;20229;-72
2021/07/08 01:12:13;;;;;;;3.57;3.20;;;;;;;;;;5016564;28;20312;-72
2021/07/08 01:15:17;;;;;;;4.57;3.87;;;;;;;;;;5009569;28;20198;-72
2021/07/08 01:18:21;;;;;;;4.50;3.90;;;;;;;;;;5015162;28;20213;-72
2021/07/08 01:21:33;;;;;;;4.70;3.30;;;;;;;;;;5003852;28;20194;-72
2021/07/08 01:24:38;;;;;;;5.23;3.60;;;;;;;;;;5011128;28;20197;-73
2021/07/08 01:27:43;;;;;;;8.07;4.80;;;;;;;;;;4998358;28;20221;-73
2021/07/08 01:30:47;;;;;;;6.03;5.03;;;;;;;;;;5005263;28;20202;-72
2021/07/08 01:33:51;;;;;;;9.27;5.37;;;;;;;;;;4998332;28;20190;-73
2021/07/08 01:36:56;;;;;;;8.60;7.27;;;;;;;;;;5002494;28;20194;-72
2021/07/08 01:40:01;;;;;;;8.83;6.70;;;;;;;;;;5006682;28;20206;-72
2021/07/08 01:43:04;;;;;;;7.53;6.17;;;;;;;;;;5003093;28;20653;-72
2021/07/08 01:46:12;;;;;;;7.40;6.63;;;;;;;;;;5003966;28;20194;-72
2021/07/08 01:49:17;;;;;;;7.70;7.00;;;;;;;;;;5010210;28;20213;-72
2021/07/08 01:52:21;;;;;;;10.30;7.07;;;;;;;;;;5015232;28;20197;-72
2021/07/08 01:55:25;;;;;;;7.90;6.90;;;;;;;;;;5016811;28;20193;-72
2021/07/08 01:58:29;;;;;;;9.97;6.30;;;;;;;;;;4997538;28;20214;-72
2021/07/08 02:01:33;;;;;;;7.20;6.10;;;;;;;;;;4998495;28;20198;-73
2021/07/08 02:04:37;;;;;;;6.37;5.27;;;;;;;;;;4997831;28;20178;-73
2021/07/08 02:07:41;;;;;;;6.03;5.07;;;;;;;;;;5014790;28;20209;-73
2021/07/08 02:10:45;;;;;;;6.37;4.80;;;;;;;;;;5016367;28;20525;-72
2021/07/08 02:13:50;;;;;;;6.80;5.30;;;;;;;;;;4999365;28;20206;-73
2021/07/08 02:16:55;;;;;;;5.70;5.07;;;;;;;;;;5008364;28;20197;-73
2021/07/08 02:20:00;;;;;;;8.10;6.00;;;;;;;;;;5010983;28;20205;-73
2021/07/08 02:23:05;;;;;;;6.83;5.27;;;;;;;;;;5016981;28;20173;-74
2021/07/08 02:26:09;;;;;;;5.23;4.73;;;;;;;;;;5012941;28;20522;-73
2021/07/08 02:29:14;;;;;;;8.70;5.20;;;;;;;;;;5016313;28;20221;-73
2021/07/08 02:32:18;;;;;;;5.47;4.70;;;;;;;;;;5016159;28;20185;-73
2021/07/08 02:35:24;;;;;;;8.83;5.03;;;;;;;;;;5013081;28;20193;-73
2021/07/08 02:38:28;;;;;;;8.33;5.10;;;;;;;;;;5003262;28;20218;-72
2021/07/08 02:41:32;;;;;;;6.67;4.47;;;;;;;;;;5015290;28;20185;-72
2021/07/08 02:44:36;;;;;;;10.47;6.27;;;;;;;;;;4996902;28;20194;-73
2021/07/08 02:47:40;;;;;;;11.77;6.43;;;;;;;;;;5013130;28;20205;-73
2021/07/08 02:50:46;;;;;;;8.00;6.00;;;;;;;;;;5013813;28;20197;-73
2021/07/08 02:53:50;;;;;;;7.97;6.50;;;;;;;;;;4998458;28;20201;-73
2021/07/08 02:56:54;;;;;;;7.90;6.13;;;;;;;;;;5008085;28;20185;-73
2021/07/08 02:59:58;;;;;;;13.13;6.10;;;;;;;;;;5019032;28;20193;-73
2021/07/08 03:03:03;;;;;;;5.80;5.30;;;;;;;;;;5000838;28;20178;-73
2021/07/08 03:06:07;;;;;;;8.13;5.40;;;;;;;;;;5013538;28;20177;-73
2021/07/08 03:09:11;;;;;;;5.93;5.30;;;;;;;;;;5003037;28;20214;-73
2021/07/08 03:12:15;;;;;;;6.20;5.60;;;;;;;;;;4996822;28;20652;-73
2021/07/08 03:15:20;;;;;;;9.50;6.00;;;;;;;;;;5000516;28;20210;-73
2021/07/08 03:18:25;;;;;;;8.67;5.80;;;;;;;;;;4999642;28;20230;-73
2021/07/08 03:21:29;;;;;;;6.70;5.93;;;;;;;;;;5003261;28;20185;-73
2021/07/08 03:24:33;;;;;;;6.80;5.90;;;;;;;;;;5004232;28;20202;-73
2021/07/08 03:27:37;;;;;;;12.23;6.30;;;;;;;;;;5015540;28;20672;-73
2021/07/08 03:30:41;;;;;;;9.77;6.40;;;;;;;;;;5006474;28;20206;-73
2021/07/08 03:33:46;;;;;;;9.93;8.67;;;;;;;;;;5014634;28;20194;-73
2021/07/08 03:36:50;;;;;;;11.67;9.50;;;;;;;;;;5004998;28;20201;-73
2021/07/08 03:39:54;;;;;;;14.33;10.53;;;;;;;;;;5019226;23;20229;-85
2021/07/08 03:42:58;;;;;;;13.40;11.40;;;;;;;;;;5024827;28;20192;-86
2021/07/08 03:46:02;;;;;;;13.60;12.20;;;;;;;;;;5013521;28;20207;-86
2021/07/08 03:49:06;;;;;;;14.37;11.97;;;;;;;;;;5024478;28;20199;-86
2021/07/08 03:52:10;;;;;;;12.77;11.47;;;;;;;;;;4993711;28;20184;-86
2021/07/08 03:55:16;;;;;;;16.73;12.17;;;;;;;;;;5004667;28;20200;-86
2021/07/08 03:58:20;;;;;;;16.23;11.10;;;;;;;;;;5004880;28;20185;-86
2021/07/08 04:01:26;;;;;;;11.73;10.03;;;;;;;;;;5004869;28;20707;-86
2021/07/08 04:04:31;;;;;;;13.07;8.57;;;;;;;;;;4993316;28;20184;-86
2021/07/08 04:07:36;;;;;;;11.47;8.40;;;;;;;;;;5004305;28;20205;-86
2021/07/08 04:10:42;;;;;;;9.33;8.00;;;;;;;;;;5002252;28;20224;-85
2021/07/08 04:13:46;;;;;;;9.03;6.57;;;;;;;;;;5015534;28;20517;-85
2021/07/08 04:16:51;;;;;;;8.13;6.87;;;;;;;;;;5008894;28;20196;-85
2021/07/08 04:19:54;;;;;;;8.87;6.03;;;;;;;;;;5033761;28;20217;-86
2021/07/08 04:22:59;;;;;;;12.80;7.30;;;;;;;;;;5007745;28;20672;-86
2021/07/08 04:26:04;;;;;;;7.93;6.40;;;;;;;;;;5004646;28;20193;-86
2021/07/08 04:29:07;;;;;;;10.67;6.70;;;;;;;;;;5003848;28;20205;-86
2021/07/08 04:32:11;;;;;;;6.93;5.30;;;;;;;;;;5015479;28;20197;-86
2021/07/08 04:35:25;;;;;;;10.63;6.40;;;;;;;;;;4992732;28;20664;-86
2021/07/08 04:38:29;;;;;;;7.87;6.03;;;;;;;;;;5004397;28;20170;-90
2021/07/08 04:41:33;;;;;;;9.53;6.37;;;;;;;;;;4992391;28;20229;-90
2021/07/08 04:44:37;;;;;;;5.60;4.80;;;;;;;;;;5016300;28;20513;-88
2021/07/08 04:47:43;;;;;;;8.00;5.80;;;;;;;;;;5014998;28;20218;-88
2021/07/08 04:50:47;;;;;;;8.53;5.50;;;;;;;;;;5003583;28;20221;-88
2021/07/08 04:53:51;;;;;;;7.83;4.33;;;;;;;;;;5003739;28;20521;-88
2021/07/08 04:56:55;;;;;;;7.93;4.50;;;;;;;;;;5003627;28;20185;-87
2021/07/08 05:00:00;;;;;;;7.27;4.27;;;;;;;;;;5002181;28;20220;-88
2021/07/08 05:03:08;;;;;;;6.57;4.60;;;;;;;;;;5003677;28;20185;-88
2021/07/08 05:06:12;;;;;;;5.70;4.30;;;;;;;;;;5003346;28;20197;-88
2021/07/08 05:09:19;;;;;;;8.33;4.60;;;;;;;;;;5012009;28;20663;-91
2021/07/08 05:12:24;;;;;;;5.93;4.03;;;;;;;;;;5007508;28;20193;-88
2021/07/08 05:15:28;;;;;;;7.97;4.53;;;;;;;;;;5003068;28;20181;-87
2021/07/08 05:18:35;;;;;;;6.67;3.83;;;;;;;;;;5003092;28;20244;-91
2021/07/08 05:21:49;;;;;;;6.53;4.60;;;;;;;;;;5002601;28;20225;-88
2021/07/08 05:24:53;;;;;;;5.57;4.97;;;;;;;;;;5014653;28;20190;-87
2021/07/08 05:27:57;;;;;;;8.30;5.00;;;;;;;;;;5002934;28;20554;-87
2021/07/08 05:31:01;;;;;;;7.27;4.33;;;;;;;;;;5002710;28;20228;-87
2021/07/08 05:34:05;;;;;;;7.83;4.83;;;;;;;;;;4996272;28;20205;-87
2021/07/08 05:37:10;;;;;;;7.27;4.50;;;;;;;;;;5014256;28;20178;-87
2021/07/08 05:40:14;;;;;;;7.20;4.37;;;;;;;;;;4991211;28;20225;-87
2021/07/08 05:43:18;;;;;;;6.80;4.23;;;;;;;;;;5014486;28;20185;-87
2021/07/08 05:46:22;;;;;;;7.20;4.33;;;;;;;;;;4991812;28;20189;-87
2021/07/08 05:49:26;;;;;;;6.07;4.80;;;;;;;;;;5002595;28;20205;-88
2021/07/08 05:52:30;;;;;;;4.50;3.33;;;;;;;;;;5003114;28;20181;-87
2021/07/08 05:55:34;;;;;;;8.17;3.70;;;;;;;;;;5002303;28;20181;-87
2021/07/08 05:58:38;;;;;;;7.37;4.10;;;;;;;;;;4991426;28;20181;-87
2021/07/08 06:01:42;;;;;;;5.53;3.80;;;;;;;;;;4998165;28;20216;-87
2021/07/08 06:04:47;;;;;;;6.13;3.77;;;;;;;;;;5010726;28;20180;-87
2021/07/08 06:07:50;;;;;;;7.43;4.43;;;;;;;;;;5009639;28;20690;-87
2021/07/08 06:10:55;;;;;;;6.83;3.67;;;;;;;;;;4990359;28;20225;-87
2021/07/08 06:13:59;;;;;;;10.60;4.40;;;;;;;;;;5013906;28;20193;-87
2021/07/08 06:17:03;;;;;;;5.17;3.60;;;;;;;;;;5002351;28;20513;-87
2021/07/08 06:20:08;;;;;;;4.67;3.80;;;;;;;;;;5014519;28;20217;-87
2021/07/08 06:23:12;;;;;;;7.23;4.10;;;;;;;;;;5002044;28;20197;-86
2021/07/08 06:26:17;;;;;;;9.73;4.77;;;;;;;;;;4990910;28;20189;-86
2021/07/08 06:29:21;;;;;;;7.30;4.93;;;;;;;;;;5009559;28;20564;-87
2021/07/08 06:32:25;;;;;;;5.43;4.93;;;;;;;;;;5013291;28;20189;-87
2021/07/08 06:35:29;;;;;;;8.43;4.97;;;;;;;;;;5002185;28;20177;-87
2021/07/08 06:38:33;;;;;;;6.97;4.17;;;;;;;;;;5009467;28;20197;-87
2021/07/08 06:41:37;;;;;;;6.70;5.20;;;;;;;;;;4994422;28;20225;-87
2021/07/08 06:44:41;;;;;;;6.47;4.80;;;;;;;;;;4993243;28;20193;-87
2021/07/08 06:47:50;;;;;;;6.67;5.83;;;;;;;;;;5012901;28;20182;-87
2021/07/08 06:50:54;;;;;;;4.40;3.93;;;;;;;;;;5032542;28;20229;-87
2021/07/08 06:54:00;;;;;;;6.43;5.83;;;;;;;;;;4997506;28;20200;-87
2021/07/08 06:57:05;;;;;;;7.57;5.23;;;;;;;;;;5012459;28;20205;-87
2021/07/08 07:00:09;;;;;;;6.50;5.80;;;;;;;;;;5012604;28;20213;-87
2021/07/08 07:03:13;;;;;;;5.80;5.20;;;;;;;;;;5001972;28;20652;-87
2021/07/08 07:06:17;;;;;;;7.33;5.10;;;;;;;;;;5002181;28;20181;-87
2021/07/08 07:09:21;;;;;;;6.57;4.63;;;;;;;;;;4990813;28;20660;-87
2021/07/08 07:12:25;;;;;;;7.67;4.40;;;;;;;;;;5013080;28;20205;-87
2021/07/08 07:15:29;;;;;;;4.77;4.23;;;;;;;;;;4991315;28;20205;-87
2021/07/08 07:18:39;;;;;;;5.60;4.90;;;;;;;;;;5000344;28;20549;-87
2021/07/08 07:21:43;;;;;;;6.40;4.70;;;;;;;;;;4990453;28;20549;-87
2021/07/08 07:24:50;;;;;;;6.07;5.40;;;;;;;;;;4990877;28;20533;-87
2021/07/08 07:27:56;;;;;;;7.63;6.10;;;;;;;;;;5013161;28;20190;-87
2021/07/08 07:31:01;;;;;;;9.40;6.47;;;;;;;;;;5024487;28;20213;-87
2021/07/08 07:34:05;;;;;;;10.47;8.70;;;;;;;;;;4991770;28;20188;-87
2021/07/08 07:37:09;;;;;;;7.90;6.57;;;;;;;;;;5027284;28;20188;-87
2021/07/08 07:40:13;;;;;;;9.10;8.30;;;;;;;;;;5002925;28;20233;-87
2021/07/08 07:43:17;;;;;;;9.17;8.33;;;;;;;;;;4989979;28;20644;-87
2021/07/08 07:46:22;;;;;;;8.07;7.37;;;;;;;;;;5002751;28;20189;-87
2021/07/08 07:49:26;;;;;;;7.93;7.23;;;;;;;;;;5011608;28;20224;-87
2021/07/08 07:52:32;;;;;;;10.07;8.90;;;;;;;;;;5007858;28;20205;-86
2021/07/08 07:55:36;;;;;;;7.93;6.90;;;;;;;;;;5009016;28;20544;-87
2021/07/08 07:58:40;;;;;;;12.57;8.27;;;;;;;;;;4994536;28;20185;-87
2021/07/08 08:01:44;;;;;;;10.23;8.33;;;;;;;;;;5004449;28;20692;-87
2021/07/08 08:11:22;;;;;;;15.00;8.33;;;;;;;;;;5009133;28;20834;-87
2021/07/08 08:14:26;;;;;;;9.60;8.33;;;;;;;;;;4996357;28;20521;-87
2021/07/08 08:17:30;;;;;;;9.23;7.53;;;;;;;;;;5050194;28;20195;-89
2021/07/08 08:20:34;;;;;;;9.90;7.67;;;;;;;;;;5032438;28;20547;-87
2021/07/08 08:23:38;;;;;;;9.77;7.13;;;;;;;;;;5020697;28;20533;-87
2021/07/08 08:26:43;;;;;;;7.60;6.70;;;;;;;;;;4994517;28;20185;-87
2021/07/08 08:29:48;;;;;;;7.40;6.80;;;;;;;;;;5010336;28;20581;-87
2021/07/08 08:32:52;;;;;;;7.50;6.73;;;;;;;;;;4993722;28;20518;-87
2021/07/08 08:35:56;;;;;;;7.80;7.00;;;;;;;;;;5003735;28;20205;-87
2021/07/08 08:39:00;;;;;;;8.50;7.50;;;;;;;;;;4993652;28;20173;-87
2021/07/08 08:42:08;;;;;;;8.97;7.10;;;;;;;;;;5011133;28;20196;-87
2021/07/08 08:45:17;;;;;;;9.63;8.77;;;;;;;;;;5010480;28;20189;-87
2021/07/08 08:48:21;;;;;;;8.40;7.70;;;;;;;;;;5035001;28;20228;-87
2021/07/08 08:51:25;;;;;;;8.97;8.10;;;;;;;;;;5012768;28;20553;-87
2021/07/08 08:54:29;;;;;;;8.17;7.07;;;;;;;;;;5011577;28;20530;-87
2021/07/08 08:57:33;;;;;;;7.87;7.03;;;;;;;;;;4998324;28;20189;-87
2021/07/08 09:00:45;;;;;;;10.97;7.70;;;;;;;;;;5004122;28;20213;-87
2021/07/08 09:03:48;;;;;;;9.30;8.43;;;;;;;;;;4998842;28;20185;-87
2021/07/08 09:06:52;;;;;;;7.07;6.47;;;;;;;;;;5011310;28;20187;-87
2021/07/08 09:09:59;;;;;;;7.93;6.63;;;;;;;;;;5002922;28;20241;-87
2021/07/08 09:13:05;;;;;;;12.07;7.40;;;;;;;;;;5003751;28;20202;-87
2021/07/08 09:16:13;;;;;;;9.93;7.73;;;;;;;;;;4999534;28;20194;-87
2021/07/08 09:19:19;;;;;;;7.47;6.67;;;;;;;;;;5022964;28;20177;-87
2021/07/08 09:22:28;;;;;;;7.57;6.77;;;;;;;;;;5017169;28;20192;-87
2021/07/08 09:25:32;;;;;;;9.33;8.43;;;;;;;;;;5007770;28;20198;-87
2021/07/08 09:28:37;;;;;;;9.37;8.47;;;;;;;;;;4992416;28;20178;-87
2021/07/08 09:31:47;;;;;;;26.43;9.17;;;;;;;;;;4992125;28;20217;-87
2021/07/08 09:34:54;;;;;;;9.70;8.73;;;;;;;;;;5009767;28;20193;-88
2021/07/08 09:38:12;;;;;;;11.73;8.67;;;;;;;;;;5011253;28;20205;-87
2021/07/08 09:41:25;;;;;;;9.90;7.53;;;;;;;;;;5016693;23;20225;-84
2021/07/08 09:44:29;;;;;;;7.60;6.90;;;;;;;;;;5014138;28;20201;-84
2021/07/08 09:47:34;;;;;;;9.80;7.00;;;;;;;;;;5006738;28;20182;-84
2021/07/08 09:50:38;;;;;;;12.90;7.03;;;;;;;;;;4983529;28;20696;-85
2021/07/08 09:53:49;;;;;;;7.43;6.83;;;;;;;;;;4988272;28;20620;-84
2021/07/08 09:56:56;;;;;;;8.53;6.67;;;;;;;;;;4997055;28;20648;-84
2021/07/08 10:00:01;;;;;;;8.90;8.00;;;;;;;;;;5015397;28;20629;-86
2021/07/08 10:03:06;;;;;;;9.03;8.10;;;;;;;;;;4985984;28;20182;-87
2021/07/08 10:06:11;;;;;;;9.30;6.73;;;;;;;;;;4998403;28;20197;-86
2021/07/08 10:09:18;;;;;;;8.60;7.60;;;;;;;;;;4991025;28;20210;-86
2021/07/08 10:12:23;;;;;;;8.63;7.67;;;;;;;;;;4975016;28;20226;-86
2021/07/08 10:15:29;;;;;;;7.47;6.77;;;;;;;;;;4973491;28;20191;-86
2021/07/08 10:18:37;;;;;;;7.70;6.90;;;;;;;;;;4983051;28;20186;-86
2021/07/08 10:21:42;;;;;;;7.60;6.93;;;;;;;;;;4982742;28;20689;-86
2021/07/08 10:24:47;;;;;;;8.90;8.03;;;;;;;;;;4979318;28;20193;-86
2021/07/08 10:27:54;;;;;;;7.53;6.83;;;;;;;;;;5019970;28;20194;-86
2021/07/08 10:30:59;;;;;;;8.17;7.47;;;;;;;;;;5022838;28;20222;-86
2021/07/08 10:34:16;;;;;;;9.17;8.37;;;;;;;;;;5013929;28;20179;-86
2021/07/08 10:37:27;;;;;;;8.73;7.57;;;;;;;;;;4982328;28;20193;-86
2021/07/08 10:40:32;;;;;;;8.27;7.43;;;;;;;;;;4987574;28;20217;-86
2021/07/08 10:43:42;;;;;;;8.37;7.23;;;;;;;;;;5000779;28;20190;-86
2021/07/08 10:46:46;;;;;;;9.33;7.40;;;;;;;;;;5029957;28;20195;-86
2021/07/08 10:49:50;;;;;;;9.07;7.77;;;;;;;;;;4991024;28;20684;-86
2021/07/08 10:52:54;;;;;;;8.03;7.23;;;;;;;;;;4992642;28;20190;-86
2021/07/08 10:56:02;;;;;;;9.03;8.10;;;;;;;;;;4993593;28;20185;-86
2021/07/08 10:59:13;;;;;;;8.57;7.87;;;;;;;;;;4976834;28;20553;-86
2021/07/08 11:02:48;;;;;;;7.70;7.00;;;;;;;;;;4990501;28;20225;-86
2021/07/08 11:05:56;;;;;;;8.33;7.50;;;;;;;;;;4990924;28;20185;-86
2021/07/08 11:09:05;;;;;;;8.57;7.87;;;;;;;;;;4990321;28;20668;-86
2021/07/08 11:12:09;;;;;;;8.20;7.40;;;;;;;;;;4993380;28;20696;-86
2021/07/08 11:15:13;;;;;;;8.87;7.90;;;;;;;;;;4984279;28;20199;-86
2021/07/08 11:18:29;;;;;;;8.90;8.10;;;;;;;;;;4990816;28;20201;-86
2021/07/08 11:21:48;;;;;;;8.20;7.40;;;;;;;;;;4980131;28;20222;-86
2021/07/08 11:24:54;;;;;;;8.53;7.63;;;;;;;;;;4985861;28;20186;-86
2021/07/08 11:27:58;;;;;;;8.50;7.77;;;;;;;;;;4996954;28;20194;-86
2021/07/08 11:31:06;;;;;;;11.43;8.83;;;;;;;;;;5000381;28;20221;-86
2021/07/08 11:34:13;;;;;;;9.40;8.30;;;;;;;;;;5005645;28;20516;-86
2021/07/08 11:37:24;;;;;;;8.60;7.90;;;;;;;;;;4994419;28;20177;-86
2021/07/08 11:40:49;;;;;;;9.50;8.60;;;;;;;;;;4984516;28;20637;-86
2021/07/08 11:43:53;;;;;;;9.20;8.07;;;;;;;;;;4974632;28;20190;-86
2021/07/08 11:46:59;;;;;;;8.13;7.33;;;;;;;;;;4990057;28;20189;-86
2021/07/08 11:50:03;;;;;;;9.10;8.40;;;;;;;;;;4979960;28;20214;-86
2021/07/08 11:53:19;;;;;;;10.70;9.33;;;;;;;;;;4974521;28;20194;-86
2021/07/08 11:56:24;;;;;;;9.70;8.90;;;;;;;;;;4974589;28;20190;-86
2021/07/08 11:59:29;;;;;;;10.70;9.70;;;;;;;;;;4981915;28;20182;-86
2021/07/08 12:02:36;;;;;;;11.20;10.20;;;;;;;;;;5002014;28;20228;-86
2021/07/08 12:05:40;;;;;;;11.17;10.17;;;;;;;;;;4993740;28;20193;-86
2021/07/08 12:08:47;;;;;;;12.17;10.63;;;;;;;;;;5003802;28;20212;-86
2021/07/08 12:11:51;;;;;;;12.47;11.27;;;;;;;;;;5004322;28;20229;-86
2021/07/08 12:14:58;;;;;;;10.30;9.40;;;;;;;;;;4990770;28;20262;-86
2021/07/08 12:18:02;;;;;;;11.00;9.93;;;;;;;;;;4980402;28;20202;-86
2021/07/08 12:21:22;;;;;;;12.10;10.97;;;;;;;;;;4973804;28;20218;-86
2021/07/08 12:24:30;;;;;;;13.03;11.93;;;;;;;;;;4985497;28;20537;-86
2021/07/08 12:27:38;;;;;;;17.67;12.90;;;;;;;;;;4982110;28;20209;-86
2021/07/08 12:30:42;;;;;;;20.40;12.73;;;;;;;;;;4983962;28;20604;-86
2021/07/08 12:34:02;;;;;;;14.67;13.37;;;;;;;;;;4973709;28;20193;-86
2021/07/08 12:37:25;;;;;;;14.13;12.77;;;;;;;;;;4974009;28;20193;-86
2021/07/08 12:40:29;;;;;;;16.50;13.60;;;;;;;;;;4973776;28;20205;-86
2021/07/08 12:43:33;;;;;;;13.90;12.63;;;;;;;;;;4973422;28;20194;-86
2021/07/08 12:46:38;;;;;;;14.10;12.70;;;;;;;;;;5002690;28;20205;-86
2021/07/08 12:49:44;;;;;;;16.53;13.37;;;;;;;;;;4995636;28;20237;-86
2021/07/08 12:52:49;;;;;;;15.30;11.97;;;;;;;;;;4992434;28;20202;-86
2021/07/08 12:55:56;;;;;;;14.70;12.17;;;;;;;;;;4995946;28;20193;-86
2021/07/08 12:59:01;;;;;;;13.13;11.23;;;;;;;;;;4981165;28;20568;-87
2021/07/08 13:02:05;;;;;;;16.27;11.60;;;;;;;;;;4990268;28;20236;-86
2021/07/08 13:05:12;;;;;;;12.20;10.80;;;;;;;;;;5014954;28;20216;-87
2021/07/08 13:08:18;;;;;;;12.70;10.23;;;;;;;;;;4973520;28;20197;-86
2021/07/08 13:11:24;;;;;;;11.70;9.90;;;;;;;;;;4981436;28;20256;-84
2021/07/08 13:14:28;;;;;;;9.77;8.73;;;;;;;;;;4973428;28;20197;-85
2021/07/08 13:17:34;;;;;;;9.00;8.10;;;;;;;;;;4989826;28;20980;-85
2021/07/08 13:20:40;;;;;;;11.50;8.60;;;;;;;;;;4989849;28;20205;-85
2021/07/08 13:23:46;;;;;;;12.27;8.83;;;;;;;;;;5001641;28;20521;-86
2021/07/08 13:26:50;;;;;;;10.07;8.50;;;;;;;;;;4990074;28;20197;-85
2021/07/08 13:29:55;;;;;;;10.20;8.10;;;;;;;;;;4989928;28;20225;-86
2021/07/08 13:33:04;;;;;;;8.90;8.00;;;;;;;;;;4979890;28;20197;-85
2021/07/08 13:36:26;;;;;;;8.57;7.67;;;;;;;;;;4975562;28;20684;-85
2021/07/08 13:39:31;;;;;;;9.53;6.83;;;;;;;;;;5013373;28;20182;-85
2021/07/08 13:42:35;;;;;;;6.17;5.57;;;;;;;;;;4994962;28;20206;-85
2021/07/08 13:45:39;;;;;;;6.73;6.13;;;;;;;;;;4972951;28;20178;-85
2021/07/08 13:48:47;;;;;;;5.97;5.27;;;;;;;;;;4988626;28;20553;-85
2021/07/08 13:51:52;;;;;;;5.97;5.37;;;;;;;;;;4992643;28;20699;-85
2021/07/08 13:54:56;;;;;;;5.17;4.50;;;;;;;;;;4987031;28;20228;-85
2021/07/08 13:58:01;;;;;;;4.50;4.10;;;;;;;;;;4982059;28;20185;-86
2021/07/08 14:01:05;;;;;;;6.20;3.90;;;;;;;;;;4997587;28;20685;-85
2021/07/08 14:04:09;;;;;;;4.60;4.20;;;;;;;;;;4991780;28;20193;-86
2021/07/08 14:07:13;;;;;;;4.33;3.93;;;;;;;;;;4991204;28;20185;-85
2021/07/08 14:10:17;;;;;;;4.13;3.73;;;;;;;;;;4979038;28;20213;-85
2021/07/08 14:13:21;;;;;;;4.53;4.13;;;;;;;;;;4980857;28;20193;-85
2021/07/08 14:16:26;;;;;;;4.93;4.43;;;;;;;;;;5003347;28;20189;-86
2021/07/08 14:19:30;;;;;;;4.53;3.80;;;;;;;;;;4987796;28;20198;-86
2021/07/08 14:22:34;;;;;;;4.23;3.83;;;;;;;;;;4971972;28;20221;-85
2021/07/08 14:25:38;;;;;;;14.97;8.43;;;;;;;;;;4994557;28;20182;-86
2021/07/08 14:28:42;;;;;;;11.70;6.40;;;;;;;;;;4992970;28;20198;-86
2021/07/08 14:31:47;;;;;;;6.83;5.07;;;;;;;;;;4983793;28;20762;-83
2021/07/08 14:34:51;;;;;;;4.27;3.87;;;;;;;;;;4983172;28;20194;-85
2021/07/08 14:37:55;;;;;;;4.10;3.67;;;;;;;;;;4987063;28;20189;-85
2021/07/08 14:41:00;;;;;;;4.17;3.77;;;;;;;;;;4980970;28;20221;-84
2021/07/08 14:44:17;;;;;;;4.87;4.00;;;;;;;;;;4988317;28;20201;-84
2021/07/08 14:47:22;;;;;;;3.97;3.57;;;;;;;;;;4989264;28;20191;-84
2021/07/08 14:50:26;;;;;;;4.90;3.23;;;;;;;;;;4988174;28;20224;-84
2021/07/08 14:53:30;;;;;;;5.30;3.00;;;;;;;;;;4996711;28;20203;-87
2021/07/08 14:56:34;;;;;;;4.50;3.03;;;;;;;;;;4976698;28;20197;-89
2021/07/08 14:59:38;;;;;;;1.93;1.83;;;;;;;;;;4982562;28;20223;-85
2021/07/08 15:02:44;;;;;;;3.63;2.33;;;;;;;;;;5000700;28;20198;-86
2021/07/08 15:05:49;;;;;;;2.20;1.97;;;;;;;;;;4985592;28;20202;-86
2021/07/08 15:08:54;;;;;;;2.53;2.17;;;;;;;;;;4975894;28;20641;-86
2021/07/08 15:11:58;;;;;;;2.23;1.90;;;;;;;;;;5013624;28;20235;-86
2021/07/08 15:15:03;;;;;;;2.20;2.00;;;;;;;;;;4985497;28;20191;-86
2021/07/08 15:18:07;;;;;;;2.30;2.10;;;;;;;;;;4974490;28;20654;-86
2021/07/08 15:21:11;;;;;;;2.40;2.20;;;;;;;;;;4974686;28;20230;-87
2021/07/08 15:24:15;;;;;;;2.20;2.00;;;;;;;;;;4986285;28;20203;-88
2021/07/08 15:27:20;;;;;;;2.70;2.50;;;;;;;;;;4999685;28;20197;-87
2021/07/08 15:30:24;;;;;;;5.23;2.50;;;;;;;;;;5002681;28;20866;-86
2021/07/08 15:33:29;;;;;;;3.93;2.57;;;;;;;;;;4982482;28;20196;-87
2021/07/08 15:36:34;;;;;;;2.97;2.50;;;;;;;;;;4984518;28;20614;-86
2021/07/08 15:43:09;;;;;;;4.43;2.40;;;;;;;;;;4990613;28;20193;-86
2021/07/08 15:46:13;;;;;;;3.93;2.40;;;;;;;;;;4978464;28;20197;-85
2021/07/08 15:49:18;;;;;;;3.80;2.53;;;;;;;;;;4990165;28;20197;-86
2021/07/08 15:52:22;;;;;;;3.13;2.33;;;;;;;;;;4995915;28;20233;-86
2021/07/08 15:55:26;;;;;;;4.53;2.37;;;;;;;;;;4987177;28;20521;-87
2021/07/08 15:58:30;;;;;;;2.70;2.50;;;;;;;;;;4993115;28;20200;-86
2021/07/08 16:01:35;;;;;;;3.90;2.77;;;;;;;;;;4989608;28;20213;-86
2021/07/08 16:04:39;;;;;;;8.20;2.40;;;;;;;;;;4997111;28;20182;-86
2021/07/08 16:07:43;;;;;;;3.80;2.70;;;;;;;;;;4981388;28;20206;-86
2021/07/08 16:10:49;;;;;;;3.60;2.30;;;;;;;;;;5009852;28;20225;-86
2021/07/08 16:13:53;;;;;;;4.83;2.33;;;;;;;;;;5005575;28;20685;-86
2021/07/08 16:16:58;;;;;;;4.10;2.80;;;;;;;;;;4981410;28;20186;-86
2021/07/08 16:20:03;;;;;;;3.23;2.30;;;;;;;;;;4992138;28;20202;-85
2021/07/08 16:23:07;;;;;;;5.10;2.60;;;;;;;;;;4993146;28;20194;-86
2021/07/08 16:26:12;;;;;;;4.93;2.70;;;;;;;;;;5006445;28;20669;-86
2021/07/08 16:29:18;;;;;;;2.80;2.50;;;;;;;;;;4982913;28;20530;-86
2021/07/08 16:32:22;;;;;;;2.80;2.27;;;;;;;;;;4987070;28;20225;-85
2021/07/08 16:35:28;;;;;;;3.30;2.30;;;;;;;;;;4982027;28;20198;-84
2021/07/08 16:38:32;;;;;;;5.13;2.67;;;;;;;;;;4983372;28;20546;-86
2021/07/08 16:41:36;;;;;;;2.53;1.97;;;;;;;;;;4999223;28;20225;-86
2021/07/08 16:44:39;;;;;;;3.20;2.27;;;;;;;;;;4989306;28;20186;-86
2021/07/08 16:47:44;;;;;;;3.83;2.30;;;;;;;;;;5005657;28;20610;-86
2021/07/08 16:50:49;;;;;;;4.83;2.27;;;;;;;;;;4986490;28;20212;-87
2021/07/08 16:53:53;;;;;;;4.27;2.30;;;;;;;;;;4988358;28;20213;-87
2021/07/08 16:56:57;;;;;;;2.40;2.10;;;;;;;;;;4989016;28;20201;-85
2021/07/08 17:00:04;;;;;;;2.47;2.20;;;;;;;;;;4988699;28;20182;-86
2021/07/08 17:03:09;;;;;;;2.23;1.93;;;;;;;;;;4997815;28;20189;-86
2021/07/08 17:06:14;;;;;;;3.47;2.00;;;;;;;;;;4996889;28;20201;-86
2021/07/08 17:09:19;;;;;;;3.30;2.17;;;;;;;;;;5011176;28;20189;-84
2021/07/08 17:12:28;;;;;;;4.87;1.77;;;;;;;;;;4998639;28;20569;-85
2021/07/08 17:15:33;;;;;;;4.83;1.63;;;;;;;;;;4973209;28;20661;-85
2021/07/08 17:18:37;;;;;;;3.80;1.93;;;;;;;;;;4985948;28;20190;-86
2021/07/08 17:21:41;;;;;;;2.63;1.60;;;;;;;;;;4971922;28;20217;-85
2021/07/08 17:24:45;;;;;;;2.60;1.53;;;;;;;;;;4983059;28;20194;-84
2021/07/08 17:27:50;;;;;;;1.90;1.40;;;;;;;;;;4990753;28;20194;-86
2021/07/08 17:30:55;;;;;;;2.60;1.23;;;;;;;;;;4982285;28;20695;-85
2021/07/08 17:34:00;;;;;;;2.73;1.60;;;;;;;;;;4989216;28;20185;-85
2021/07/08 17:37:04;;;;;;;2.93;1.67;;;;;;;;;;4996650;28;20194;-86
2021/07/08 17:40:13;;;;;;;5.43;1.70;;;;;;;;;;4992215;28;20201;-86
2021/07/08 17:43:17;;;;;;;6.10;2.03;;;;;;;;;;4969660;28;20542;-85
2021/07/08 17:46:21;;;;;;;3.83;2.10;;;;;;;;;;4997679;28;20186;-85
2021/07/08 17:49:26;;;;;;;3.20;1.70;;;;;;;;;;5003725;28;20198;-85
2021/07/08 17:52:31;;;;;;;3.90;1.60;;;;;;;;;;4981459;28;20222;-85
2021/07/08 17:55:36;;;;;;;3.17;1.67;;;;;;;;;;4979467;28;20641;-86
2021/07/08 17:58:42;;;;;;;3.30;1.70;;;;;;;;;;4983751;28;20213;-86
2021/07/08 18:01:46;;;;;;;3.80;1.60;;;;;;;;;;4986066;28;20696;-83
2021/07/08 18:04:51;;;;;;;2.00;1.43;;;;;;;;;;4973097;28;20206;-84
2021/07/08 18:07:55;;;;;;;4.80;1.50;;;;;;;;;;4985048;28;20198;-83
2021/07/08 18:10:59;;;;;;;2.07;1.40;;;;;;;;;;4982797;28;20217;-83
2021/07/08 18:14:04;;;;;;;2.17;1.43;;;;;;;;;;4981157;28;20186;-83
2021/07/08 18:17:08;;;;;;;3.67;1.40;;;;;;;;;;4988005;28;20696;-84
2021/07/08 18:20:14;;;;;;;5.60;1.13;;;;;;;;;;5003901;28;20189;-83
2021/07/08 18:23:19;;;;;;;3.23;1.60;;;;;;;;;;5016338;28;20189;-83
2021/07/08 18:26:23;;;;;;;1.80;1.40;;;;;;;;;;5007171;28;20182;-83
2021/07/08 18:29:27;;;;;;;2.03;1.67;;;;;;;;;;4986961;28;20193;-84
2021/07/08 18:32:31;;;;;;;1.83;1.40;;;;;;;;;;4987351;28;20221;-84
2021/07/08 18:35:36;;;;;;;2.50;1.23;;;;;;;;;;4996050;28;20194;-85
2021/07/08 18:38:41;;;;;;;2.63;1.23;;;;;;;;;;5005168;28;20205;-84